Terminal Aerodrome Forecast
Issued by NWS Atlanta, GA

Home | Current Version | Previous Version | Text Only | Print | Product List | Glossary On
Versions: 1 2 3 4 5 6 7 8 9 10 11 12 13 14 15 16 17 18 19 20 21 22 23 24 25 26 27 28
000
FTAK31 PAJN 241100
TAFAHN
TAF
PAHN 241139Z 2412/2512 13006KT P6SM BKN150
     FM241600 VRB05KT P6SM BKN150
     FM242000 12010KT P6SM BKN150
     FM250300 13010KT P6SM BKN150
     FM250600 VRB05KT P6SM SCT050 BKN100
      AMD LTD TO CLD VIS AND WIND=

USA.gov is the U.S. government's official web portal to all federal, state and local government web resources and services.